Time;durP1;ratioP1;P1;durP2;ratioP2;P2;SDS_P1;SDS_P2;PMS_P1;PMS_P2;Temp;Humidity;BMP_temperature;BMP_pressure;BME280_temperature;BME280_humidity;BME280_pressure;Samples;Min_cycle;Max_cycle;Signal;HPM_P1;HPM_P2
2023/09/17 00:00:04;;;;;;;12.50;7.50;;;20.90;98.00;;;;;;4996504;28;20479;-70
2023/09/17 00:02:31;;;;;;;13.30;6.90;;;20.90;98.00;;;;;;5176552;23;20509;-70
2023/09/17 00:04:58;;;;;;;14.80;7.53;;;20.80;98.00;;;;;;5109978;22;20495;-69
2023/09/17 00:07:25;;;;;;;12.83;6.93;;;20.80;98.00;;;;;;5013786;28;21036;-69
2023/09/17 00:09:54;;;;;;;12.37;7.13;;;20.90;98.00;;;;;;5014062;28;20514;-70
2023/09/17 00:12:21;;;;;;;11.90;6.90;;;20.80;98.00;;;;;;5013819;28;20455;-69
2023/09/17 00:14:49;;;;;;;14.30;7.20;;;20.70;98.00;;;;;;5013852;28;20467;-68
2023/09/17 00:17:16;;;;;;;12.80;6.73;;;20.70;98.00;;;;;;5013705;28;20452;-69
2023/09/17 00:19:43;;;;;;;11.43;6.97;;;20.80;98.00;;;;;;5013560;28;20550;-69
2023/09/17 00:22:14;;;;;;;11.10;7.03;;;20.60;98.00;;;;;;5013597;28;20451;-70
2023/09/17 00:24:41;;;;;;;12.63;7.40;;;20.70;98.00;;;;;;5013360;28;20451;-69
2023/09/17 00:27:09;;;;;;;13.20;7.10;;;21.00;98.00;;;;;;5013264;28;20751;-69
2023/09/17 00:29:37;;;;;;;11.90;7.03;;;21.00;98.00;;;;;;5013528;28;20452;-69
2023/09/17 00:32:04;;;;;;;13.93;6.70;;;20.70;98.00;;;;;;5013284;28;20447;-70
2023/09/17 00:34:32;;;;;;;11.33;6.83;;;20.60;98.00;;;;;;5013358;28;20451;-70
2023/09/17 00:37:00;;;;;;;11.80;6.27;;;20.50;98.00;;;;;;5013307;28;20456;-70
2023/09/17 00:39:27;;;;;;;10.37;6.03;;;20.40;98.00;;;;;;4995951;28;20531;-69
2023/09/17 00:41:54;;;;;;;12.60;6.90;;;20.30;98.00;;;;;;5012829;28;20479;-69
2023/09/17 00:44:23;;;;;;;12.43;6.10;;;20.10;98.00;;;;;;5013136;28;20494;-69
2023/09/17 00:46:51;;;;;;;11.90;6.63;;;19.90;98.00;;;;;;4995290;28;20960;-68
2023/09/17 00:49:18;;;;;;;12.00;7.07;;;19.80;98.00;;;;;;5012977;28;20482;-69
2023/09/17 00:51:45;;;;;;;10.03;6.00;;;19.70;98.00;;;;;;5012700;28;20824;-68
2023/09/17 00:54:14;;;;;;;9.53;6.20;;;19.80;98.00;;;;;;5012735;28;20462;-69
2023/09/17 00:56:42;;;;;;;11.67;6.80;;;19.70;98.00;;;;;;5012158;28;20467;-68
2023/09/17 00:59:10;;;;;;;11.23;6.90;;;19.70;98.00;;;;;;5012769;28;20945;-69
2023/09/17 01:01:38;;;;;;;10.87;6.47;;;19.70;98.00;;;;;;5012567;28;20590;-68
2023/09/17 01:04:07;;;;;;;11.17;6.27;;;19.80;98.00;;;;;;5012454;28;20950;-69
2023/09/17 01:06:36;;;;;;;10.60;6.00;;;19.70;98.00;;;;;;5012556;28;20957;-69
2023/09/17 01:09:07;;;;;;;12.70;6.50;;;19.80;98.00;;;;;;5012472;28;20961;-68
2023/09/17 01:11:35;;;;;;;12.53;6.20;;;19.80;98.00;;;;;;4995585;28;20443;-69
2023/09/17 01:14:15;;;;;;;12.60;6.80;;;19.70;98.00;;;;;;5011443;28;20522;-68
2023/09/17 01:16:46;;;;;;;10.10;5.60;;;19.60;98.00;;;;;;5012396;28;20467;-68
2023/09/17 01:19:22;;;;;;;11.30;5.80;;;19.60;98.00;;;;;;5012342;28;21049;-69
2023/09/17 01:22:01;;;;;;;12.00;5.93;;;19.50;98.00;;;;;;5012218;28;21001;-68
2023/09/17 01:24:40;;;;;;;9.40;5.50;;;19.50;98.00;;;;;;4996356;28;20823;-68
2023/09/17 01:27:10;;;;;;;11.27;6.70;;;19.50;98.00;;;;;;5012355;28;20459;-69
2023/09/17 01:29:39;;;;;;;10.03;5.70;;;19.50;98.00;;;;;;4995124;28;20451;-68
2023/09/17 01:32:06;;;;;;;9.67;5.20;;;19.60;98.00;;;;;;5012302;28;20454;-68
2023/09/17 01:34:37;;;;;;;9.07;5.10;;;19.40;98.00;;;;;;5012295;28;20594;-69
2023/09/17 01:37:09;;;;;;;16.60;5.53;;;19.30;98.00;;;;;;5012039;28;20459;-69
2023/09/17 01:39:41;;;;;;;11.20;5.77;;;19.40;98.00;;;;;;5012134;28;20455;-68
2023/09/17 01:42:10;;;;;;;12.17;6.37;;;19.30;98.00;;;;;;5012090;28;20574;-68
2023/09/17 01:44:39;;;;;;;10.27;5.77;;;19.20;98.00;;;;;;5012107;28;20797;-68
2023/09/17 01:47:07;;;;;;;11.20;6.37;;;19.20;98.00;;;;;;5011839;28;20510;-68
2023/09/17 01:49:36;;;;;;;11.33;6.70;;;19.20;98.00;;;;;;5012085;28;20459;-68
2023/09/17 01:52:03;;;;;;;13.43;6.90;;;19.10;98.00;;;;;;4994957;28;20826;-67
2023/09/17 01:54:31;;;;;;;10.30;6.43;;;19.10;98.00;;;;;;5011997;28;20460;-68
2023/09/17 01:56:58;;;;;;;10.73;6.40;;;19.10;98.00;;;;;;5011666;28;20737;-68
2023/09/17 01:59:26;;;;;;;11.23;5.63;;;19.30;98.00;;;;;;5012118;28;20455;-68
2023/09/17 02:01:54;;;;;;;10.87;6.37;;;19.40;98.00;;;;;;5011584;28;21167;-68
2023/09/17 02:04:21;;;;;;;11.83;6.80;;;19.30;98.00;;;;;;5011681;28;20471;-68
2023/09/17 02:06:53;;;;;;;12.30;7.00;;;19.20;98.00;;;;;;5011554;28;20455;-68
2023/09/17 02:09:20;;;;;;;10.93;6.07;;;19.10;98.00;;;;;;5011858;28;20886;-69
2023/09/17 02:11:48;;;;;;;11.43;6.20;;;19.20;98.00;;;;;;5011494;28;20459;-68
2023/09/17 02:14:16;;;;;;;15.10;5.90;;;19.30;98.00;;;;;;4994262;28;20455;-68
2023/09/17 02:16:44;;;;;;;12.20;6.20;;;19.40;98.00;;;;;;5011438;28;20550;-69
2023/09/17 02:19:11;;;;;;;9.60;5.80;;;19.40;98.00;;;;;;5011695;28;20505;-68
2023/09/17 02:21:40;;;;;;;11.50;6.27;;;19.30;98.00;;;;;;5011356;28;20574;-68
2023/09/17 02:24:07;;;;;;;11.17;5.97;;;19.20;98.00;;;;;;5011011;28;20454;-68
2023/09/17 02:26:34;;;;;;;11.07;6.13;;;19.10;98.00;;;;;;5011289;28;20543;-69
2023/09/17 02:29:01;;;;;;;11.17;6.27;;;19.00;98.00;;;;;;5011262;28;20456;-69
2023/09/17 02:31:28;;;;;;;10.23;5.60;;;18.90;98.00;;;;;;5011242;28;20505;-69
2023/09/17 02:33:57;;;;;;;11.30;6.00;;;19.00;98.00;;;;;;5011234;28;20494;-68
2023/09/17 02:36:24;;;;;;;11.00;5.93;;;18.80;98.00;;;;;;5011575;28;20459;-68
2023/09/17 02:38:51;;;;;;;12.83;5.87;;;18.80;98.00;;;;;;5011205;28;20448;-67
2023/09/17 02:41:18;;;;;;;11.13;6.17;;;18.90;98.00;;;;;;5011561;28;20510;-67
2023/09/17 02:43:45;;;;;;;9.87;5.80;;;19.10;98.00;;;;;;5011008;28;20461;-68
2023/09/17 02:46:12;;;;;;;9.10;5.30;;;19.00;98.00;;;;;;5011400;28;20522;-68
2023/09/17 02:48:39;;;;;;;10.07;6.07;;;19.00;98.00;;;;;;5011130;28;20797;-68
2023/09/17 02:51:10;;;;;;;10.80;6.00;;;18.90;98.00;;;;;;5011092;28;20667;-68
2023/09/17 02:53:38;;;;;;;10.87;5.90;;;18.80;98.00;;;;;;5011159;28;20541;-68
2023/09/17 02:56:05;;;;;;;13.37;6.70;;;18.70;98.00;;;;;;5011390;28;20456;-68
2023/09/17 02:58:32;;;;;;;12.07;6.07;;;18.70;98.00;;;;;;5011023;28;20451;-70
2023/09/17 03:01:01;;;;;;;10.63;5.90;;;18.70;98.00;;;;;;5011014;28;20494;-69
2023/09/17 03:03:28;;;;;;;10.43;5.80;;;18.80;98.00;;;;;;5011103;28;20546;-67
2023/09/17 03:05:58;;;;;;;10.57;5.87;;;18.90;98.00;;;;;;5011265;28;20459;-68
2023/09/17 03:08:27;;;;;;;10.63;5.90;;;19.00;98.00;;;;;;5011389;28;20754;-69
2023/09/17 03:11:00;;;;;;;11.83;6.50;;;18.80;98.00;;;;;;5010985;28;20459;-68
2023/09/17 03:13:27;;;;;;;11.17;6.40;;;18.70;98.00;;;;;;5011131;28;20522;-69
2023/09/17 03:15:57;;;;;;;10.87;5.57;;;18.70;98.00;;;;;;5010865;28;20479;-69
2023/09/17 03:18:25;;;;;;;11.00;6.03;;;18.80;98.00;;;;;;5010936;28;20455;-68
2023/09/17 03:20:53;;;;;;;12.70;6.60;;;18.90;98.00;;;;;;5011016;28;20459;-67
2023/09/17 03:23:20;;;;;;;10.00;6.00;;;19.00;98.00;;;;;;5010849;28;20456;-68
2023/09/17 03:25:48;;;;;;;10.13;5.70;;;18.90;98.00;;;;;;5011000;28;20521;-68
2023/09/17 03:28:15;;;;;;;12.33;6.50;;;18.70;98.00;;;;;;5011214;28;20455;-68
2023/09/17 03:30:43;;;;;;;11.40;5.40;;;18.70;98.00;;;;;;5010934;28;20490;-68
2023/09/17 03:33:13;;;;;;;8.77;5.17;;;18.50;98.00;;;;;;5011162;28;20881;-70
2023/09/17 03:35:40;;;;;;;10.03;5.80;;;18.60;98.00;;;;;;5011258;28;20517;-68
2023/09/17 03:38:07;;;;;;;9.80;5.70;;;18.60;98.00;;;;;;5014204;28;20838;-68
2023/09/17 03:40:35;;;;;;;11.23;5.80;;;18.30;98.00;;;;;;5014359;28;20964;-67
2023/09/17 03:43:03;;;;;;;13.07;6.13;;;18.30;98.00;;;;;;5014066;28;20881;-68
2023/09/17 03:45:31;;;;;;;8.40;5.30;;;18.30;98.00;;;;;;5014210;28;20451;-68
2023/09/17 03:47:58;;;;;;;9.00;5.30;;;18.20;98.00;;;;;;5014184;28;20491;-68
2023/09/17 03:50:26;;;;;;;10.20;5.53;;;18.30;98.00;;;;;;5014180;28;20859;-67
2023/09/17 03:52:56;;;;;;;9.77;5.70;;;18.20;98.00;;;;;;5013952;28;20456;-69
2023/09/17 03:55:24;;;;;;;9.60;5.20;;;18.10;98.00;;;;;;5014177;28;20452;-68
2023/09/17 03:57:51;;;;;;;8.67;5.10;;;18.10;98.00;;;;;;5013759;28;20537;-69
2023/09/17 04:00:20;;;;;;;8.30;4.80;;;18.20;98.00;;;;;;5014056;28;20451;-69
2023/09/17 04:02:49;;;;;;;9.00;5.30;;;18.20;98.00;;;;;;5013759;28;20566;-67
2023/09/17 04:05:17;;;;;;;8.87;5.30;;;18.20;98.00;;;;;;5013646;28;20522;-68
2023/09/17 04:07:46;;;;;;;11.17;5.20;;;18.20;98.00;;;;;;5013688;28;20797;-69
2023/09/17 04:10:15;;;;;;;8.97;5.17;;;18.30;98.00;;;;;;5013800;28;20801;-68
2023/09/17 04:12:44;;;;;;;12.70;5.97;;;18.40;98.00;;;;;;5013691;28;20458;-68
2023/09/17 04:15:16;;;;;;;9.87;5.60;;;18.40;98.00;;;;;;5013710;28;20521;-68
2023/09/17 04:17:45;;;;;;;12.30;5.50;;;18.30;98.00;;;;;;5013607;28;20456;-67
2023/09/17 04:20:14;;;;;;;8.30;5.10;;;18.40;98.00;;;;;;5013409;28;20456;-69
2023/09/17 04:22:42;;;;;;;11.43;4.83;;;18.30;98.00;;;;;;5013386;28;20574;-67
2023/09/17 04:25:10;;;;;;;9.27;5.43;;;18.20;98.00;;;;;;5013379;28;20522;-68
2023/09/17 04:27:37;;;;;;;9.20;5.17;;;18.10;98.00;;;;;;5013580;28;20822;-68
2023/09/17 04:30:05;;;;;;;10.30;5.87;;;18.00;98.00;;;;;;5013316;28;20949;-69
2023/09/17 04:32:37;;;;;;;8.37;4.97;;;18.00;98.00;;;;;;5013253;28;20551;-67
2023/09/17 04:35:07;;;;;;;8.60;5.10;;;18.10;98.00;;;;;;5013328;28;20456;-68
2023/09/17 04:37:35;;;;;;;10.07;5.43;;;18.20;98.00;;;;;;5013190;28;20487;-69
2023/09/17 04:40:08;;;;;;;8.10;4.80;;;18.30;98.00;;;;;;5013103;28;20443;-68
2023/09/17 04:42:35;;;;;;;9.63;5.30;;;18.30;98.00;;;;;;5012993;28;20515;-68
2023/09/17 04:45:04;;;;;;;10.20;5.17;;;18.20;98.00;;;;;;5013199;28;20454;-68
2023/09/17 04:47:32;;;;;;;8.97;5.00;;;18.20;98.00;;;;;;5012735;28;20455;-68
2023/09/17 04:49:59;;;;;;;9.33;5.43;;;18.20;98.00;;;;;;5012842;28;20538;-68
2023/09/17 04:52:27;;;;;;;8.70;5.40;;;18.00;98.00;;;;;;5013009;28;20467;-67
2023/09/17 04:54:54;;;;;;;9.10;5.13;;;17.80;98.00;;;;;;5012971;28;21033;-67
2023/09/17 04:57:21;;;;;;;8.10;4.97;;;17.80;98.00;;;;;;5012724;28;20517;-68
2023/09/17 04:59:50;;;;;;;10.27;5.53;;;17.70;98.00;;;;;;5012683;28;20451;-68
2023/09/17 05:02:17;;;;;;;9.73;5.50;;;17.70;98.00;;;;;;5012650;28;20518;-67
2023/09/17 05:04:44;;;;;;;9.60;5.40;;;17.70;98.00;;;;;;5012669;28;20510;-68
2023/09/17 05:07:12;;;;;;;10.23;5.10;;;17.70;98.00;;;;;;5012674;28;20465;-67
2023/09/17 05:09:40;;;;;;;9.50;5.47;;;17.80;98.00;;;;;;5012616;28;20451;-68
2023/09/17 05:12:09;;;;;;;10.10;5.70;;;17.80;98.00;;;;;;5012632;28;20451;-68
2023/09/17 05:14:37;;;;;;;10.17;5.50;;;17.70;98.00;;;;;;5012822;28;20487;-67
2023/09/17 05:17:05;;;;;;;9.50;5.37;;;17.80;98.00;;;;;;5012657;28;20502;-68
2023/09/17 05:19:32;;;;;;;10.63;5.93;;;17.70;98.00;;;;;;5012485;28;20459;-68
2023/09/17 05:21:59;;;;;;;9.43;5.07;;;17.80;98.00;;;;;;5012476;28;20475;-67
2023/09/17 05:24:26;;;;;;;10.27;4.90;;;17.90;98.00;;;;;;5012351;28;20575;-68
2023/09/17 05:26:54;;;;;;;9.80;5.33;;;18.00;98.00;;;;;;5012322;28;20455;-68
2023/09/17 05:29:21;;;;;;;8.73;4.90;;;17.90;98.00;;;;;;5012417;28;20452;-67
2023/09/17 05:31:48;;;;;;;9.07;5.27;;;17.90;98.00;;;;;;5012365;28;20462;-68
2023/09/17 05:34:16;;;;;;;9.40;5.00;;;17.90;98.00;;;;;;5012132;28;20448;-68
2023/09/17 05:36:43;;;;;;;9.50;5.67;;;17.80;98.00;;;;;;5012064;28;20506;-68
2023/09/17 05:39:13;;;;;;;9.93;5.63;;;17.80;98.00;;;;;;5011959;28;20451;-68
2023/09/17 05:41:40;;;;;;;10.60;5.50;;;17.70;98.00;;;;;;5012115;28;20455;-67
2023/09/17 05:44:08;;;;;;;9.33;5.43;;;17.80;98.00;;;;;;5011862;28;20463;-67
2023/09/17 05:46:35;;;;;;;9.33;5.27;;;17.70;98.00;;;;;;5012100;28;20513;-67
2023/09/17 05:49:02;;;;;;;9.00;4.97;;;17.70;98.00;;;;;;5011714;28;20961;-68
2023/09/17 05:51:30;;;;;;;9.47;5.17;;;17.80;98.00;;;;;;5011856;28;20948;-67
2023/09/17 05:53:57;;;;;;;12.23;5.90;;;17.70;98.00;;;;;;5011725;28;20853;-67
2023/09/17 05:56:25;;;;;;;8.80;4.97;;;17.70;98.00;;;;;;5011838;28;20451;-68
2023/09/17 05:58:52;;;;;;;11.03;6.00;;;17.70;98.00;;;;;;5011288;28;20466;-68
2023/09/17 06:01:21;;;;;;;10.60;5.57;;;17.80;98.00;;;;;;5011677;28;20462;-68
2023/09/17 06:03:48;;;;;;;9.63;5.40;;;17.90;98.00;;;;;;5011473;28;20491;-68
2023/09/17 06:06:16;;;;;;;10.50;5.00;;;17.90;98.00;;;;;;5011573;28;20521;-68
2023/09/17 06:08:43;;;;;;;6.97;4.70;;;18.00;98.00;;;;;;5011634;28;20458;-68
2023/09/17 06:11:10;;;;;;;8.13;5.20;;;18.10;98.00;;;;;;5011463;28;20458;-68
2023/09/17 06:13:37;;;;;;;10.57;5.70;;;18.10;98.00;;;;;;5011693;28;20871;-67
2023/09/17 06:16:04;;;;;;;8.90;4.93;;;18.10;98.00;;;;;;5011602;28;20497;-67
2023/09/17 06:18:34;;;;;;;8.63;5.40;;;18.20;98.00;;;;;;5011422;28;20482;-67
2023/09/17 06:21:01;;;;;;;12.03;5.80;;;18.20;98.00;;;;;;5011447;28;20803;-67
2023/09/17 06:23:28;;;;;;;12.10;6.10;;;18.30;98.00;;;;;;5011343;28;20573;-68
2023/09/17 06:25:55;;;;;;;13.33;5.80;;;18.50;98.00;;;;;;5011741;28;20462;-67
2023/09/17 06:28:22;;;;;;;11.40;6.17;;;18.50;98.00;;;;;;5011351;28;20526;-67
2023/09/17 06:30:49;;;;;;;11.17;6.20;;;18.50;98.00;;;;;;5011392;28;20458;-69
2023/09/17 06:33:16;;;;;;;10.93;6.00;;;18.50;98.00;;;;;;5011451;28;20880;-69
2023/09/17 06:35:45;;;;;;;9.33;5.50;;;18.70;98.00;;;;;;5011482;28;20514;-68
2023/09/17 06:38:12;;;;;;;11.30;6.03;;;19.00;98.00;;;;;;4993643;28;20948;-67
2023/09/17 06:40:39;;;;;;;10.47;5.60;;;19.10;98.00;;;;;;4993993;28;20966;-67
2023/09/17 06:43:07;;;;;;;9.03;5.67;;;19.30;98.00;;;;;;5011075;28;20487;-68
2023/09/17 06:45:34;;;;;;;11.53;6.27;;;19.30;98.00;;;;;;5011274;28;20555;-68
2023/09/17 06:48:01;;;;;;;10.30;5.80;;;19.40;98.00;;;;;;5011236;28;20502;-68
2023/09/17 06:50:28;;;;;;;9.83;5.53;;;19.30;98.00;;;;;;5012381;28;20981;-68
2023/09/17 06:52:57;;;;;;;9.23;5.30;;;19.20;98.00;;;;;;5012264;28;20459;-67
2023/09/17 06:55:24;;;;;;;10.20;5.70;;;19.30;98.00;;;;;;5012325;28;20510;-63
2023/09/17 06:57:51;;;;;;;11.70;6.37;;;19.40;98.00;;;;;;5011924;28;20455;-64
2023/09/17 07:00:18;;;;;;;11.43;6.50;;;19.50;98.00;;;;;;5011897;28;20976;-63
2023/09/17 07:02:45;;;;;;;9.23;5.77;;;19.60;98.00;;;;;;5011824;28;20487;-63
2023/09/17 07:05:13;;;;;;;11.00;6.13;;;19.50;98.00;;;;;;5011728;28;20470;-63
2023/09/17 07:07:40;;;;;;;11.37;6.30;;;19.60;98.00;;;;;;5011736;28;20533;-64
2023/09/17 07:10:09;;;;;;;12.53;6.60;;;19.70;98.00;;;;;;5012258;28;20963;-63
2023/09/17 07:12:38;;;;;;;13.17;6.80;;;19.80;98.00;;;;;;5015474;28;20451;-63
2023/09/17 07:15:06;;;;;;;12.50;6.63;;;19.80;98.00;;;;;;5015458;28;20517;-63
2023/09/17 07:17:34;;;;;;;11.20;6.20;;;19.80;98.00;;;;;;5015046;28;20530;-63
2023/09/17 07:20:01;;;;;;;14.07;7.10;;;20.00;98.00;;;;;;5015499;28;20459;-63
2023/09/17 07:22:28;;;;;;;11.50;6.47;;;20.00;98.00;;;;;;5015074;28;20541;-63
2023/09/17 07:24:58;;;;;;;11.50;6.40;;;20.00;98.00;;;;;;4997783;28;20823;-63
2023/09/17 07:27:28;;;;;;;10.30;5.97;;;20.20;98.00;;;;;;5015349;28;20474;-63
2023/09/17 07:29:56;;;;;;;9.80;5.80;;;20.30;98.00;;;;;;5015292;28;20456;-63
2023/09/17 07:32:23;;;;;;;11.40;6.53;;;20.40;98.00;;;;;;5015207;28;20462;-63
2023/09/17 07:34:50;;;;;;;11.70;6.50;;;20.40;98.00;;;;;;5015122;28;20451;-63
2023/09/17 07:37:18;;;;;;;11.93;6.30;;;20.50;98.00;;;;;;5014905;28;20510;-63
2023/09/17 07:39:46;;;;;;;9.97;5.93;;;20.70;98.00;;;;;;5014958;28;20482;-64
2023/09/17 07:42:14;;;;;;;11.37;6.10;;;20.80;98.00;;;;;;5015062;28;20506;-63
2023/09/17 07:44:42;;;;;;;11.43;6.10;;;21.00;98.00;;;;;;5015098;28;20455;-63
2023/09/17 07:47:10;;;;;;;9.30;5.67;;;21.20;98.00;;;;;;4997163;28;20454;-64
2023/09/17 07:49:37;;;;;;;9.97;5.93;;;21.40;98.00;;;;;;5014901;28;20896;-63
2023/09/17 07:52:04;;;;;;;11.50;5.80;;;21.60;98.00;;;;;;5014738;28;20487;-64
2023/09/17 07:54:33;;;;;;;9.07;5.47;;;21.70;98.00;;;;;;5014032;28;20459;-63
2023/09/17 07:57:00;;;;;;;11.60;5.93;;;21.80;98.00;;;;;;5014026;28;20873;-63
2023/09/17 07:59:29;;;;;;;10.40;5.87;;;21.80;98.00;;;;;;5014548;28;20471;-63
2023/09/17 08:01:58;;;;;;;10.03;6.20;;;21.90;98.00;;;;;;5014701;28;20463;-63
2023/09/17 08:04:25;;;;;;;9.90;5.90;;;22.00;98.00;;;;;;5014206;28;20491;-63
2023/09/17 08:06:52;;;;;;;11.47;6.07;;;22.10;98.00;;;;;;5014229;28;21056;-64
2023/09/17 08:09:19;;;;;;;9.40;5.50;;;22.10;98.00;;;;;;5014469;28;20458;-63
2023/09/17 08:11:46;;;;;;;10.50;6.40;;;22.10;98.00;;;;;;5011386;28;20464;-63
2023/09/17 08:14:14;;;;;;;10.27;5.90;;;22.10;98.00;;;;;;5013967;28;20848;-63
2023/09/17 08:16:41;;;;;;;9.80;5.77;;;22.20;98.00;;;;;;5014526;28;20451;-63
2023/09/17 08:19:10;;;;;;;11.63;6.63;;;22.20;98.00;;;;;;5013198;28;20954;-63
2023/09/17 08:21:37;;;;;;;9.50;5.77;;;22.30;98.00;;;;;;5012895;28;20884;-64
2023/09/17 08:24:05;;;;;;;10.80;6.13;;;22.40;98.00;;;;;;5013172;28;20484;-64
2023/09/17 08:26:32;;;;;;;11.07;6.50;;;22.40;98.00;;;;;;5013604;28;20459;-64
2023/09/17 08:29:00;;;;;;;10.80;6.13;;;22.40;98.00;;;;;;4996107;28;20455;-64
2023/09/17 08:31:28;;;;;;;11.60;7.20;;;22.50;98.00;;;;;;5013512;28;20514;-63
2023/09/17 08:33:55;;;;;;;10.03;6.00;;;22.70;98.00;;;;;;5013493;28;20467;-64
2023/09/17 08:36:23;;;;;;;11.47;6.43;;;22.80;98.00;;;;;;5014088;28;20926;-63
2023/09/17 08:38:51;;;;;;;11.67;6.87;;;22.90;98.00;;;;;;5013891;28;20455;-64
2023/09/17 08:41:19;;;;;;;10.70;6.10;;;23.00;98.00;;;;;;5014096;28;20454;-64
2023/09/17 08:43:47;;;;;;;11.43;6.40;;;23.00;98.00;;;;;;5013367;28;20558;-64
2023/09/17 08:46:14;;;;;;;10.97;6.23;;;23.10;98.00;;;;;;5013510;28;20466;-64
2023/09/17 08:48:43;;;;;;;10.50;5.67;;;23.10;98.00;;;;;;5013618;28;21025;-65
2023/09/17 08:51:11;;;;;;;13.80;6.73;;;23.10;98.00;;;;;;5013244;28;20454;-65
2023/09/17 08:53:48;;;;;;;9.90;5.90;;;23.10;98.00;;;;;;5012173;28;20542;-65
2023/09/17 08:56:17;;;;;;;12.80;7.20;;;23.30;98.00;;;;;;5012863;28;20494;-65
2023/09/17 08:58:55;;;;;;;11.10;6.37;;;23.40;98.00;;;;;;5012779;28;20543;-64
2023/09/17 09:01:25;;;;;;;13.33;7.60;;;23.60;98.00;;;;;;5013395;28;20828;-65
2023/09/17 09:03:54;;;;;;;11.53;6.73;;;23.80;98.00;;;;;;5012767;28;20574;-65
2023/09/17 09:06:23;;;;;;;10.50;6.77;;;24.00;98.00;;;;;;5013139;28;20448;-64
2023/09/17 09:08:53;;;;;;;12.57;6.80;;;24.20;98.00;;;;;;4976095;28;20539;-64
2023/09/17 09:11:20;;;;;;;16.80;6.63;;;24.50;98.00;;;;;;4992314;28;20540;-64
2023/09/17 09:13:50;;;;;;;11.23;6.10;;;24.60;98.00;;;;;;4993433;28;20955;-65
2023/09/17 09:16:17;;;;;;;11.23;6.20;;;24.80;98.00;;;;;;4993495;28;20547;-65
2023/09/17 09:18:44;;;;;;;11.60;6.63;;;25.00;98.00;;;;;;4995469;28;20507;-64
2023/09/17 09:21:14;;;;;;;10.63;6.33;;;25.20;98.00;;;;;;5012916;28;20478;-64
2023/09/17 09:23:41;;;;;;;10.13;6.60;;;25.40;98.00;;;;;;4995595;28;20483;-65
2023/09/17 09:26:10;;;;;;;10.67;6.07;;;25.40;98.00;;;;;;5013208;28;20459;-64
2023/09/17 09:28:37;;;;;;;9.37;5.67;;;25.70;98.00;;;;;;5013051;28;20533;-64
2023/09/17 09:31:04;;;;;;;10.50;6.10;;;25.70;98.00;;;;;;5012769;28;20949;-64
2023/09/17 09:33:35;;;;;;;8.53;5.70;;;25.80;98.00;;;;;;5012144;28;20460;-64
2023/09/17 09:36:03;;;;;;;9.30;6.17;;;26.00;98.00;;;;;;5012753;28;20805;-64
2023/09/17 09:38:30;;;;;;;9.83;6.30;;;26.10;98.00;;;;;;5012959;28;20465;-65
2023/09/17 09:40:58;;;;;;;11.13;5.50;;;26.30;98.00;;;;;;5013096;28;20491;-64
2023/09/17 09:43:30;;;;;;;10.03;5.80;;;26.30;98.00;;;;;;5012731;28;20566;-64
2023/09/17 09:46:02;;;;;;;9.53;5.83;;;26.50;98.00;;;;;;5012854;28;20483;-64
2023/09/17 09:48:30;;;;;;;8.10;5.50;;;26.80;98.00;;;;;;5012899;28;20547;-63
2023/09/17 09:50:58;;;;;;;8.03;5.07;;;27.10;98.00;;;;;;5012928;28;20495;-64
2023/09/17 09:53:25;;;;;;;7.13;5.33;;;27.30;98.00;;;;;;5012920;28;20458;-64
2023/09/17 09:55:52;;;;;;;11.70;6.00;;;27.40;98.00;;;;;;5012779;28;21016;-64
2023/09/17 09:58:19;;;;;;;8.83;5.27;;;27.50;98.00;;;;;;5012710;28;20447;-64
2023/09/17 10:00:48;;;;;;;7.97;4.80;;;27.70;98.00;;;;;;5012749;28;20686;-65
2023/09/17 10:03:19;;;;;;;8.13;5.17;;;28.00;98.00;;;;;;5012816;28;20557;-64
2023/09/17 10:05:47;;;;;;;6.40;4.27;;;28.10;98.00;;;;;;5012512;28;20464;-63
2023/09/17 10:08:17;;;;;;;6.60;4.40;;;28.30;98.00;;;;;;5012562;28;20521;-64
2023/09/17 10:10:44;;;;;;;6.77;4.13;;;28.50;98.00;;;;;;5012906;28;20857;-65
2023/09/17 10:13:12;;;;;;;7.27;4.47;;;28.60;98.00;;;;;;5012568;28;20957;-65
2023/09/17 10:15:42;;;;;;;8.73;4.80;;;28.80;98.00;;;;;;5012332;28;20460;-65
2023/09/17 10:18:14;;;;;;;6.63;4.50;;;28.90;98.00;;;;;;5012486;28;20546;-64
2023/09/17 10:20:42;;;;;;;8.40;4.90;;;29.00;98.00;;;;;;5012383;28;20483;-64
2023/09/17 10:23:13;;;;;;;9.80;5.17;;;29.20;98.00;;;;;;5012041;28;20988;-65
2023/09/17 10:25:42;;;;;;;5.87;4.20;;;29.30;98.00;;;;;;5012343;28;20865;-64
2023/09/17 10:28:12;;;;;;;5.93;4.40;;;29.50;98.00;;;;;;5012102;28;20452;-65
2023/09/17 10:30:45;;;;;;;6.03;4.27;;;29.70;98.00;;;;;;5012009;28;20525;-64
2023/09/17 10:33:17;;;;;;;6.10;4.20;;;29.90;98.00;;;;;;5012056;28;20542;-65
2023/09/17 10:35:45;;;;;;;9.80;3.80;;;30.10;97.80;;;;;;5012068;28;20452;-64
2023/09/17 10:38:15;;;;;;;5.63;4.00;;;30.20;96.60;;;;;;5012185;28;20447;-65
2023/09/17 10:40:43;;;;;;;5.93;3.90;;;30.30;96.60;;;;;;5012053;28;20455;-65
2023/09/17 10:43:10;;;;;;;5.80;3.83;;;30.40;96.20;;;;;;5011974;28;20460;-64
2023/09/17 10:45:40;;;;;;;6.00;3.53;;;30.60;96.10;;;;;;5013593;28;20466;-64
2023/09/17 10:48:09;;;;;;;8.73;3.90;;;30.70;94.80;;;;;;5015870;28;20452;-64
2023/09/17 10:50:39;;;;;;;6.63;3.70;;;30.70;93.30;;;;;;5015854;28;20482;-65
2023/09/17 10:53:07;;;;;;;5.47;3.60;;;30.80;93.70;;;;;;5015843;28;20451;-64
2023/09/17 10:55:40;;;;;;;6.97;4.07;;;30.90;94.30;;;;;;5015861;28;20463;-64
2023/09/17 10:58:14;;;;;;;6.67;3.77;;;30.90;93.60;;;;;;5015818;28;20455;-64
2023/09/17 11:00:42;;;;;;;5.63;3.40;;;30.90;92.20;;;;;;5015905;28;20455;-65
2023/09/17 11:03:12;;;;;;;6.50;3.30;;;31.00;91.00;;;;;;5015647;28;20456;-64
2023/09/17 11:05:43;;;;;;;6.43;3.43;;;30.90;91.70;;;;;;5015633;28;20464;-64
2023/09/17 11:08:10;;;;;;;7.37;3.70;;;31.10;92.40;;;;;;5015632;28;20458;-63
2023/09/17 11:10:41;;;;;;;3.70;3.00;;;31.10;91.50;;;;;;5015688;28;20452;-65
2023/09/17 11:13:12;;;;;;;4.03;3.30;;;31.30;91.40;;;;;;5015570;28;20455;-64
2023/09/17 11:15:40;;;;;;;9.47;3.70;;;31.50;91.60;;;;;;5015613;28;20448;-64
2023/09/17 11:18:08;;;;;;;6.67;3.70;;;31.70;89.70;;;;;;5015344;28;20522;-64
2023/09/17 11:20:41;;;;;;;9.00;3.80;;;31.80;90.50;;;;;;5015557;28;20896;-64
2023/09/17 11:23:11;;;;;;;4.87;3.10;;;32.00;89.30;;;;;;4997821;28;20448;-64
2023/09/17 11:25:39;;;;;;;5.67;3.30;;;32.00;88.00;;;;;;5015429;28;20494;-64
2023/09/17 11:28:11;;;;;;;4.80;3.00;;;31.90;87.40;;;;;;5015317;28;20845;-64
2023/09/17 11:30:58;;;;;;;6.23;2.90;;;32.00;88.10;;;;;;5015476;28;20537;-64
2023/09/17 11:33:26;;;;;;;9.20;3.10;;;32.20;84.70;;;;;;5015198;28;21011;-65
2023/09/17 11:35:54;;;;;;;3.53;2.87;;;32.50;83.90;;;;;;5015174;28;20876;-62
2023/09/17 11:38:26;;;;;;;5.23;3.00;;;32.80;84.20;;;;;;5015222;28;20849;-65
2023/09/17 11:41:04;;;;;;;6.03;3.20;;;33.10;84.90;;;;;;5015191;28;20525;-64
2023/09/17 11:43:33;;;;;;;4.30;3.07;;;33.30;83.60;;;;;;5014995;28;20450;-64
2023/09/17 11:46:04;;;;;;;10.30;3.47;;;33.20;82.70;;;;;;5015024;28;20545;-64
2023/09/17 11:48:32;;;;;;;4.77;3.10;;;33.30;83.80;;;;;;5015203;28;20483;-65
2023/09/17 11:51:24;;;;;;;3.43;3.00;;;33.40;82.70;;;;;;5015211;28;20498;-65
2023/09/17 11:53:55;;;;;;;4.57;2.80;;;33.50;82.10;;;;;;5004485;28;20888;-64
2023/09/17 11:56:23;;;;;;;7.87;3.30;;;33.50;82.20;;;;;;5014223;28;20466;-63
2023/09/17 11:59:03;;;;;;;7.60;3.40;;;33.50;83.00;;;;;;5014380;28;20448;-63
2023/09/17 12:01:33;;;;;;;4.17;3.10;;;33.20;81.90;;;;;;5014572;28;20949;-64
2023/09/17 12:04:02;;;;;;;9.40;3.40;;;33.10;82.70;;;;;;5014125;28;20575;-64
2023/09/17 12:06:30;;;;;;;5.40;3.20;;;33.00;83.20;;;;;;5014523;28;20455;-64
2023/09/17 12:09:06;;;;;;;6.20;3.10;;;33.10;83.60;;;;;;5014422;28;20463;-64
2023/09/17 12:11:36;;;;;;;5.97;3.00;;;33.30;85.00;;;;;;5014470;28;20542;-65
2023/09/17 12:14:06;;;;;;;6.33;2.70;;;33.40;82.70;;;;;;5014130;28;20543;-64
2023/09/17 12:16:36;;;;;;;4.43;2.80;;;33.50;82.30;;;;;;5014327;28;20509;-64
2023/09/17 12:19:04;;;;;;;4.50;3.03;;;33.50;83.20;;;;;;5014334;28;20470;-64
2023/09/17 12:21:33;;;;;;;3.70;2.83;;;33.40;83.10;;;;;;5014377;28;20467;-64
2023/09/17 12:24:06;;;;;;;5.20;2.70;;;33.40;81.40;;;;;;5014067;28;20578;-64
2023/09/17 12:26:37;;;;;;;3.23;2.63;;;33.40;82.60;;;;;;5014207;28;20447;-65
2023/09/17 12:29:10;;;;;;;3.60;2.73;;;33.50;81.40;;;;;;5014094;28;20452;-63
2023/09/17 12:31:37;;;;;;;4.87;3.00;;;33.50;82.00;;;;;;5014256;28;20977;-64
2023/09/17 12:34:05;;;;;;;6.50;2.93;;;33.50;80.30;;;;;;4996547;28;20467;-65
2023/09/17 12:36:32;;;;;;;8.63;3.20;;;33.30;84.10;;;;;;5013655;28;20950;-64
2023/09/17 12:39:01;;;;;;;7.37;2.70;;;33.20;82.20;;;;;;5012860;28;20456;-64
2023/09/17 12:41:28;;;;;;;6.80;2.77;;;33.20;83.00;;;;;;5013372;28;20455;-64
2023/09/17 12:43:56;;;;;;;4.60;2.80;;;33.40;82.70;;;;;;5013603;28;20949;-64
2023/09/17 12:46:23;;;;;;;7.10;2.97;;;33.50;83.10;;;;;;5013765;28;20455;-64